Time;durP1;ratioP1;P1;durP2;ratioP2;P2;SDS_P1;SDS_P2;PMS_P1;PMS_P2;Temp;Humidity;BMP_temperature;BMP_pressure;BME280_temperature;BME280_humidity;BME280_pressure;Samples;Min_cycle;Max_cycle;Signal;HPM_P1;HPM_P2
2021/08/09 00:02:02;;;;;;;;;;;11.50;99.90;;;;;;5031383;28;19957;-81
2021/08/09 00:04:27;;;;;;;;;;;11.50;99.90;;;;;;5031622;28;19909;-81
2021/08/09 00:06:53;;;;;;;;;;;11.50;99.90;;;;;;5014305;28;20073;-81
2021/08/09 00:09:18;;;;;;;;;;;11.50;99.90;;;;;;5033431;28;19909;-81
2021/08/09 00:11:44;;;;;;;;;;;11.50;99.90;;;;;;5016630;28;19952;-80
2021/08/09 00:14:09;;;;;;;;;;;11.50;99.90;;;;;;5016721;28;19909;-80
2021/08/09 00:16:35;;;;;;;;;;;11.60;99.90;;;;;;5034262;28;20008;-81
2021/08/09 00:19:00;;;;;;;;;;;11.50;99.90;;;;;;5034306;28;20365;-81
2021/08/09 00:21:26;;;;;;;;;;;11.50;99.90;;;;;;5016436;28;19909;-81
2021/08/09 00:23:52;;;;;;;;;;;11.50;99.90;;;;;;5033991;28;19909;-80
2021/08/09 00:26:20;;;;;;;;;;;11.50;99.90;;;;;;5034154;28;19910;-81
2021/08/09 00:28:45;;;;;;;;;;;11.50;99.90;;;;;;5033839;28;19913;-81
2021/08/09 00:31:11;;;;;;;;;;;11.40;99.90;;;;;;5033048;28;20111;-81
2021/08/09 00:33:36;;;;;;;;;;;11.40;99.90;;;;;;5033190;28;19921;-80
2021/08/09 00:36:02;;;;;;;;;;;11.40;99.90;;;;;;5033374;28;20239;-81
2021/08/09 00:38:27;;;;;;;;;;;11.40;99.90;;;;;;5032548;28;19909;-81
2021/08/09 00:40:53;;;;;;;;;;;11.30;99.90;;;;;;5033731;28;20007;-81
2021/08/09 00:43:18;;;;;;;;;;;11.30;99.90;;;;;;5032885;28;19909;-81
2021/08/09 00:45:44;;;;;;;;;;;11.30;99.90;;;;;;5032578;28;19944;-80
2021/08/09 00:48:09;;;;;;;;;;;11.30;99.90;;;;;;5033520;28;19959;-80
2021/08/09 00:50:35;;;;;;;;;;;11.30;99.90;;;;;;5032727;28;19913;-80
2021/08/09 00:53:00;;;;;;;;;;;11.30;99.90;;;;;;5033900;28;20278;-80
2021/08/09 00:55:26;;;;;;;;;;;11.20;99.90;;;;;;5034416;28;19913;-80
2021/08/09 00:57:52;;;;;;;;;;;11.20;99.90;;;;;;5032262;28;19920;-81
2021/08/09 01:00:18;;;;;;;;;;;11.20;99.90;;;;;;5032921;28;20091;-81
2021/08/09 01:02:43;;;;;;;;;;;11.20;99.90;;;;;;5032967;28;19942;-81
2021/08/09 01:05:10;;;;;;;;;;;11.20;99.90;;;;;;5031729;28;20376;-80
2021/08/09 01:08:02;;;;;;;;;;;11.20;99.90;;;;;;5033022;28;20441;-81
2021/08/09 01:10:52;;;;;;;;;;;11.20;99.90;;;;;;5017324;28;19913;-80
2021/08/09 01:13:27;;;;;;;;;;;11.20;99.90;;;;;;5036346;28;19909;-80
2021/08/09 01:16:12;;;;;;;;;;;11.20;99.90;;;;;;5036987;28;19909;-80
2021/08/09 01:18:39;;;;;;;;;;;11.20;99.90;;;;;;5036713;28;19909;-80
2021/08/09 01:21:05;;;;;;;;;;;11.20;99.90;;;;;;5035401;28;19952;-80
2021/08/09 01:23:30;;;;;;;;;;;11.10;99.90;;;;;;5036402;28;20349;-81
2021/08/09 01:25:58;;;;;;;;;;;11.10;99.90;;;;;;5034831;28;19909;-81
2021/08/09 01:28:27;;;;;;;;;;;11.20;99.90;;;;;;5036198;28;19913;-81
2021/08/09 01:30:55;;;;;;;;;;;11.20;99.90;;;;;;5036173;28;19923;-81
2021/08/09 01:33:22;;;;;;;;;;;11.10;99.90;;;;;;5035955;28;20171;-81
2021/08/09 01:35:47;;;;;;;;;;;11.10;99.90;;;;;;5036415;28;19909;-81
2021/08/09 01:38:14;;;;;;;;;;;11.20;99.90;;;;;;5035444;28;19910;-81
2021/08/09 01:40:40;;;;;;;;;;;11.10;99.90;;;;;;5034930;28;19916;-81
2021/08/09 01:43:06;;;;;;;;;;;11.10;99.90;;;;;;5035325;28;19913;-81
2021/08/09 01:45:32;;;;;;;;;;;11.10;99.90;;;;;;5036279;28;19944;-81
2021/08/09 01:47:58;;;;;;;;;;;11.10;99.90;;;;;;5034295;28;19920;-81
2021/08/09 01:50:24;;;;;;;;;;;11.10;99.90;;;;;;5035844;28;19909;-81
2021/08/09 01:52:50;;;;;;;;;;;11.10;99.90;;;;;;5035287;28;20075;-81
2021/08/09 01:55:17;;;;;;;;;;;11.10;99.90;;;;;;5036324;28;19916;-81
2021/08/09 01:57:43;;;;;;;;;;;11.10;99.90;;;;;;5034305;28;20333;-80
2021/08/09 02:00:10;;;;;;;;;;;11.10;99.90;;;;;;5036458;28;19910;-80
2021/08/09 02:02:35;;;;;;;;;;;11.00;99.90;;;;;;5047185;28;19972;-80
2021/08/09 02:05:09;;;;;;;;;;;11.00;99.90;;;;;;5030493;28;19910;-80
2021/08/09 02:07:36;;;;;;;;;;;11.00;99.90;;;;;;5029625;28;19921;-80
2021/08/09 02:10:06;;;;;;;;;;;11.00;99.90;;;;;;5049047;28;19909;-79
2021/08/09 02:12:36;;;;;;;;;;;10.90;99.90;;;;;;5030217;28;19913;-80
2021/08/09 02:15:03;;;;;;;;;;;11.00;99.90;;;;;;5019055;28;19909;-80
2021/08/09 02:17:33;;;;;;;;;;;10.90;99.90;;;;;;5033886;28;19999;-80
2021/08/09 02:20:06;;;;;;;;;;;10.90;99.90;;;;;;5033477;28;19913;-80
2021/08/09 02:22:39;;;;;;;;;;;10.90;99.90;;;;;;5014947;28;20297;-80
2021/08/09 02:25:26;;;;;;;;;;;10.90;99.90;;;;;;5033521;28;20366;-80
2021/08/09 02:27:57;;;;;;;;;;;10.80;99.90;;;;;;5015236;28;19983;-80
2021/08/09 02:30:25;;;;;;;;;;;10.80;99.90;;;;;;5033337;28;19913;-80
2021/08/09 02:32:52;;;;;;;;;;;10.80;99.90;;;;;;5030791;28;20000;-80
2021/08/09 02:35:19;;;;;;;;;;;10.80;99.90;;;;;;5035105;28;19936;-81
2021/08/09 02:37:44;;;;;;;;;;;10.70;99.90;;;;;;5035050;28;19917;-80
2021/08/09 02:40:11;;;;;;;;;;;10.70;99.90;;;;;;5032340;28;19909;-80
2021/08/09 02:42:37;;;;;;;;;;;10.70;99.90;;;;;;5034078;28;20286;-80
2021/08/09 02:45:03;;;;;;;;;;;10.60;99.90;;;;;;5034522;28;19909;-80
2021/08/09 02:47:30;;;;;;;;;;;10.60;99.90;;;;;;5035916;28;19999;-80
2021/08/09 02:49:58;;;;;;;;;;;10.60;99.90;;;;;;5037527;28;19916;-80
2021/08/09 02:52:24;;;;;;;;;;;10.50;99.90;;;;;;5036078;28;19970;-80
2021/08/09 02:54:50;;;;;;;;;;;10.40;99.90;;;;;;5035292;28;19909;-80
2021/08/09 02:57:16;;;;;;;;;;;10.40;99.90;;;;;;5031068;28;19916;-80
2021/08/09 02:59:42;;;;;;;;;;;10.30;99.90;;;;;;5032631;28;19909;-80
2021/08/09 03:02:08;;;;;;;;;;;10.30;99.90;;;;;;5032427;28;19909;-80
2021/08/09 03:04:35;;;;;;;;;;;10.20;99.90;;;;;;5032841;28;20428;-80
2021/08/09 03:07:03;;;;;;;;;;;10.20;99.90;;;;;;5032352;28;20008;-80
2021/08/09 03:09:29;;;;;;;;;;;10.20;99.90;;;;;;5033136;28;19909;-80
2021/08/09 03:11:54;;;;;;;;;;;10.10;99.90;;;;;;5032462;28;19955;-80
2021/08/09 03:14:20;;;;;;;;;;;10.00;99.90;;;;;;5032653;28;20282;-80
2021/08/09 03:16:46;;;;;;;;;;;9.90;99.90;;;;;;5032088;28;19909;-80
2021/08/09 03:19:12;;;;;;;;;;;9.90;99.90;;;;;;5032491;28;19909;-80
2021/08/09 03:21:37;;;;;;;;;;;9.90;99.90;;;;;;5032266;28;19915;-80
2021/08/09 03:24:03;;;;;;;;;;;9.90;99.90;;;;;;5032402;28;19920;-80
2021/08/09 03:26:28;;;;;;;;;;;9.80;99.90;;;;;;5031668;28;19979;-80
2021/08/09 03:28:54;;;;;;;;;;;9.80;99.90;;;;;;5032208;28;19913;-79
2021/08/09 03:31:19;;;;;;;;;;;9.70;99.90;;;;;;5031867;28;20321;-80
2021/08/09 03:33:45;;;;;;;;;;;9.70;99.90;;;;;;5031974;28;19916;-80
2021/08/09 03:36:10;;;;;;;;;;;9.70;99.90;;;;;;5031202;28;20358;-80
2021/08/09 03:38:36;;;;;;;;;;;9.70;99.90;;;;;;5032048;28;19967;-80
2021/08/09 03:41:01;;;;;;;;;;;9.70;99.90;;;;;;5031968;28;20315;-80
2021/08/09 03:43:27;;;;;;;;;;;9.70;99.90;;;;;;5014597;28;19909;-80
2021/08/09 03:45:52;;;;;;;;;;;9.70;99.90;;;;;;5031977;28;19909;-80
2021/08/09 03:48:19;;;;;;;;;;;9.70;99.90;;;;;;5031774;28;20362;-80
2021/08/09 03:50:44;;;;;;;;;;;9.70;99.90;;;;;;5032402;28;19909;-80
2021/08/09 03:53:10;;;;;;;;;;;9.70;99.90;;;;;;5014419;28;19916;-80
2021/08/09 03:55:35;;;;;;;;;;;9.70;99.90;;;;;;5032189;28;20274;-80
2021/08/09 03:58:01;;;;;;;;;;;9.70;99.90;;;;;;5031785;28;20366;-80
2021/08/09 04:00:27;;;;;;;;;;;9.70;99.90;;;;;;5013973;28;19941;-80
2021/08/09 04:02:53;;;;;;;;;;;9.70;99.90;;;;;;5013906;28;19909;-80
2021/08/09 04:05:18;;;;;;;;;;;9.60;99.90;;;;;;5014096;28;19928;-80
2021/08/09 04:07:44;;;;;;;;;;;9.60;99.90;;;;;;5031660;28;19913;-80
2021/08/09 04:10:09;;;;;;;;;;;9.60;99.90;;;;;;5032003;28;19909;-80
2021/08/09 04:12:35;;;;;;;;;;;9.60;99.90;;;;;;5032011;28;19915;-80
2021/08/09 04:15:00;;;;;;;;;;;9.60;99.90;;;;;;5032209;28;19909;-80
2021/08/09 04:17:26;;;;;;;;;;;9.60;99.90;;;;;;5031546;28;19916;-80
2021/08/09 04:19:51;;;;;;;;;;;9.60;99.90;;;;;;5014161;28;19909;-80
2021/08/09 04:22:17;;;;;;;;;;;9.60;99.90;;;;;;5031795;28;20270;-80
2021/08/09 04:24:42;;;;;;;;;;;9.60;99.90;;;;;;5031854;28;19920;-80
2021/08/09 04:27:08;;;;;;;;;;;9.60;99.90;;;;;;5013297;28;19917;-80
2021/08/09 04:29:33;;;;;;;;;;;9.60;99.90;;;;;;5030840;28;19913;-80
2021/08/09 04:31:59;;;;;;;;;;;9.60;99.90;;;;;;5031710;28;19925;-80
2021/08/09 04:34:24;;;;;;;;;;;9.70;99.90;;;;;;5014416;28;19909;-80
2021/08/09 04:36:50;;;;;;;;;;;9.70;99.90;;;;;;5031502;28;19909;-80
2021/08/09 04:39:15;;;;;;;;;;;9.70;99.90;;;;;;5031649;28;19910;-80
2021/08/09 04:41:41;;;;;;;;;;;9.80;99.90;;;;;;5031726;28;19940;-80
2021/08/09 04:44:07;;;;;;;;;;;9.80;99.90;;;;;;5032146;28;19917;-80
2021/08/09 04:46:33;;;;;;;;;;;9.80;99.90;;;;;;5033354;28;19909;-80
2021/08/09 04:48:58;;;;;;;;;;;9.90;99.90;;;;;;5035308;28;20340;-80
2021/08/09 04:51:24;;;;;;;;;;;9.90;99.90;;;;;;5035327;28;19909;-80
2021/08/09 04:53:49;;;;;;;;;;;10.00;99.90;;;;;;5035461;28;19909;-80
2021/08/09 04:56:15;;;;;;;;;;;10.00;99.90;;;;;;5017214;28;19913;-80
2021/08/09 04:58:40;;;;;;;;;;;10.00;99.90;;;;;;5035136;28;19941;-80
2021/08/09 05:01:07;;;;;;;;;;;10.00;99.90;;;;;;5035127;28;19983;-80
2021/08/09 05:03:36;;;;;;;;;;;10.10;99.90;;;;;;5035486;28;19909;-80
2021/08/09 05:06:02;;;;;;;;;;;10.10;99.90;;;;;;5036073;28;20465;-80
2021/08/09 05:08:27;;;;;;;;;;;10.10;99.90;;;;;;5035030;28;20060;-80
2021/08/09 05:10:53;;;;;;;;;;;10.10;99.90;;;;;;5017574;28;19909;-80
2021/08/09 05:13:18;;;;;;;;;;;10.10;99.90;;;;;;5017197;28;19909;-80
2021/08/09 05:15:44;;;;;;;;;;;10.20;99.90;;;;;;5017602;28;19955;-80
2021/08/09 05:18:13;;;;;;;;;;;10.20;99.90;;;;;;5035184;28;19909;-80
2021/08/09 05:20:38;;;;;;;;;;;10.30;99.90;;;;;;5035469;28;19909;-80
2021/08/09 05:23:04;;;;;;;;;;;10.30;99.90;;;;;;5034822;28;19936;-80
2021/08/09 05:25:31;;;;;;;;;;;10.40;99.90;;;;;;5034644;28;19916;-80
2021/08/09 05:27:57;;;;;;;;;;;10.60;99.90;;;;;;5034354;28;20007;-80
2021/08/09 05:30:22;;;;;;;;;;;10.70;99.90;;;;;;5034364;28;20412;-80
2021/08/09 05:32:48;;;;;;;;;;;10.70;99.90;;;;;;5034544;28;19956;-80
2021/08/09 05:35:13;;;;;;;;;;;10.80;99.90;;;;;;5035211;28;19909;-79
2021/08/09 05:37:39;;;;;;;;;;;10.80;99.90;;;;;;5017072;28;20397;-79
2021/08/09 05:40:06;;;;;;;;;;;10.90;99.90;;;;;;5038307;28;20277;-78
2021/08/09 05:42:31;;;;;;;;;;;11.00;99.90;;;;;;5036345;28;20370;-79
2021/08/09 05:44:57;;;;;;;;;;;11.10;99.90;;;;;;5035168;28;19909;-79
2021/08/09 05:47:22;;;;;;;;;;;11.20;99.90;;;;;;5016849;28;19913;-79
2021/08/09 05:49:48;;;;;;;;;;;11.30;99.90;;;;;;5017012;28;19909;-79
2021/08/09 05:52:17;;;;;;;;;;;11.40;99.90;;;;;;5016285;28;19996;-79
2021/08/09 05:54:43;;;;;;;;;;;11.40;99.90;;;;;;5033872;28;19915;-79
2021/08/09 05:57:08;;;;;;;;;;;11.50;99.90;;;;;;5032616;28;20004;-79
2021/08/09 05:59:34;;;;;;;;;;;11.60;99.90;;;;;;5033588;28;20385;-79
2021/08/09 06:01:59;;;;;;;;;;;11.60;99.90;;;;;;5015936;28;19945;-79
2021/08/09 06:04:25;;;;;;;;;;;11.70;99.90;;;;;;5033536;28;19909;-79
2021/08/09 06:06:50;;;;;;;;;;;11.80;99.90;;;;;;5033164;28;19971;-79
2021/08/09 06:09:16;;;;;;;;;;;11.80;99.90;;;;;;5033714;28;20012;-79
2021/08/09 06:11:42;;;;;;;;;;;12.00;99.90;;;;;;5033524;28;19909;-79
2021/08/09 06:14:08;;;;;;;;;;;12.00;99.90;;;;;;5034046;28;19996;-79
2021/08/09 06:16:33;;;;;;;;;;;12.10;99.90;;;;;;5033597;28;19967;-79
2021/08/09 06:18:59;;;;;;;;;;;12.30;99.90;;;;;;5015404;28;19917;-79
2021/08/09 06:21:24;;;;;;;;;;;12.40;99.90;;;;;;5033615;28;19909;-79
2021/08/09 06:23:50;;;;;;;;;;;12.50;99.90;;;;;;5033882;28;19999;-79
2021/08/09 06:26:15;;;;;;;;;;;12.70;99.90;;;;;;5033368;28;19913;-79
2021/08/09 06:28:41;;;;;;;;;;;12.80;99.90;;;;;;5034422;28;19913;-80
2021/08/09 06:31:06;;;;;;;;;;;13.00;99.90;;;;;;5034618;28;19921;-80
2021/08/09 06:33:32;;;;;;;;;;;13.10;99.90;;;;;;5034452;28;20349;-80
2021/08/09 06:35:59;;;;;;;;;;;13.30;99.90;;;;;;5032295;28;20216;-80
2021/08/09 06:38:25;;;;;;;;;;;13.50;99.90;;;;;;5034760;28;19975;-79
2021/08/09 06:40:50;;;;;;;;;;;13.60;99.90;;;;;;5034112;28;20329;-79
2021/08/09 06:43:15;;;;;;;;;;;13.70;99.90;;;;;;5033345;28;20122;-77
2021/08/09 06:45:42;;;;;;;;;;;13.80;99.90;;;;;;5032335;28;19931;-77
2021/08/09 06:48:07;;;;;;;;;;;14.00;99.90;;;;;;5030913;28;19928;-77
2021/08/09 06:50:33;;;;;;;;;;;14.10;99.90;;;;;;5032426;28;19913;-77
2021/08/09 06:52:58;;;;;;;;;;;14.30;99.90;;;;;;5031305;28;20285;-77
2021/08/09 06:55:24;;;;;;;;;;;14.40;99.90;;;;;;5032465;28;19909;-77
2021/08/09 06:57:49;;;;;;;;;;;14.60;99.90;;;;;;5030860;28;19992;-77
2021/08/09 07:00:15;;;;;;;;;;;14.70;99.90;;;;;;5032413;28;19909;-78
2021/08/09 07:02:40;;;;;;;;;;;14.90;99.90;;;;;;5032400;28;19920;-78
2021/08/09 07:05:06;;;;;;;;;;;15.00;99.90;;;;;;5031108;28;19913;-78
2021/08/09 07:07:32;;;;;;;;;;;15.50;99.90;;;;;;5030498;28;20282;-77
2021/08/09 07:09:58;;;;;;;;;;;16.50;99.90;;;;;;5032102;28;20000;-78
2021/08/09 07:12:23;;;;;;;;;;;17.50;99.90;;;;;;5032079;28;19971;-78
2021/08/09 07:14:49;;;;;;;;;;;18.70;99.90;;;;;;5031939;28;19940;-79
2021/08/09 07:17:14;;;;;;;;;;;19.90;99.90;;;;;;5014013;28;19917;-79
2021/08/09 07:19:40;;;;;;;;;;;20.90;99.90;;;;;;5032097;28;19996;-78
2021/08/09 07:22:06;;;;;;;;;;;21.50;99.90;;;;;;5014057;28;19909;-78
2021/08/09 07:24:31;;;;;;;;;;;21.50;99.90;;;;;;5031693;28;19925;-79
2021/08/09 07:26:56;;;;;;;;;;;21.70;99.90;;;;;;5031301;28;20321;-79
2021/08/09 07:29:22;;;;;;;;;;;21.80;99.90;;;;;;5014205;28;19916;-79
2021/08/09 07:31:47;;;;;;;;;;;22.30;99.90;;;;;;5031710;28;20274;-79
2021/08/09 07:34:13;;;;;;;;;;;22.90;99.90;;;;;;5031868;28;19909;-79
2021/08/09 07:36:38;;;;;;;;;;;23.40;99.90;;;;;;5030057;28;19949;-79
2021/08/09 07:39:04;;;;;;;;;;;24.00;99.90;;;;;;5030234;28;19917;-79
2021/08/09 07:41:29;;;;;;;;;;;24.20;98.90;;;;;;5031641;28;19909;-79
2021/08/09 07:43:55;;;;;;;;;;;24.60;99.80;;;;;;5030541;28;19909;-79
2021/08/09 07:46:24;;;;;;;;;;;25.00;99.10;;;;;;5031270;28;20035;-79
2021/08/09 07:48:50;;;;;;;;;;;25.20;97.50;;;;;;5031848;28;19913;-79
2021/08/09 07:51:15;;;;;;;;;;;25.40;97.10;;;;;;5031536;28;20298;-79
2021/08/09 07:53:40;;;;;;;;;;;25.60;94.90;;;;;;5031480;28;19988;-79
2021/08/09 07:56:06;;;;;;;;;;;25.50;96.10;;;;;;5031242;28;20398;-79
2021/08/09 07:58:31;;;;;;;;;;;25.80;96.30;;;;;;5031594;28;19916;-79
2021/08/09 08:00:58;;;;;;;;;;;25.40;94.80;;;;;;5031638;28;19910;-78
2021/08/09 08:03:24;;;;;;;;;;;25.20;96.50;;;;;;5031525;28;20421;-79
2021/08/09 08:05:49;;;;;;;;;;;25.50;96.80;;;;;;5030301;28;19967;-79
2021/08/09 08:08:15;;;;;;;;;;;25.50;94.40;;;;;;5018826;28;19917;-79
2021/08/09 08:10:40;;;;;;;;;;;25.60;95.20;;;;;;5013503;28;19909;-79
2021/08/09 08:13:06;;;;;;;;;;;25.80;92.20;;;;;;5013607;28;19913;-79
2021/08/09 08:15:32;;;;;;;;;;;25.70;93.10;;;;;;5031631;28;19952;-78
2021/08/09 08:17:57;;;;;;;;;;;25.30;94.20;;;;;;5030860;28;20417;-79
2021/08/09 08:20:23;;;;;;;;;;;25.40;94.80;;;;;;5032255;28;19918;-79
2021/08/09 08:22:48;;;;;;;;;;;25.70;95.90;;;;;;5036089;28;19913;-79
2021/08/09 08:25:14;;;;;;;;;;;25.80;94.10;;;;;;5036764;28;20007;-79
2021/08/09 08:27:39;;;;;;;;;;;26.00;94.50;;;;;;5036289;28;20282;-79
2021/08/09 08:30:05;;;;;;;;;;;26.50;94.60;;;;;;5036864;28;19956;-79
2021/08/09 08:32:31;;;;;;;;;;;26.70;94.70;;;;;;5036152;28;20039;-79
2021/08/09 08:34:57;;;;;;;;;;;26.40;91.20;;;;;;5035349;28;20526;-79
2021/08/09 08:37:22;;;;;;;;;;;25.50;91.30;;;;;;5034934;28;19916;-78
2021/08/09 08:39:48;;;;;;;;;;;25.00;91.80;;;;;;5017071;28;19959;-78
2021/08/09 08:42:14;;;;;;;;;;;24.70;92.20;;;;;;5017515;28;20003;-78
2021/08/09 08:44:40;;;;;;;;;;;24.70;93.00;;;;;;5017061;28;19916;-78
2021/08/09 08:47:06;;;;;;;;;;;24.90;92.80;;;;;;5014397;28;19909;-79
2021/08/09 08:49:32;;;;;;;;;;;24.60;92.30;;;;;;5031501;28;20493;-79
2021/08/09 08:51:57;;;;;;;;;;;24.90;94.30;;;;;;5031837;28;19928;-79
2021/08/09 08:54:23;;;;;;;;;;;25.00;91.50;;;;;;5032652;28;19917;-79
2021/08/09 08:56:48;;;;;;;;;;;25.30;93.00;;;;;;5014787;28;19932;-80
2021/08/09 08:59:15;;;;;;;;;;;25.80;94.80;;;;;;5032666;28;19913;-80
2021/08/09 09:01:42;;;;;;;;;;;26.10;93.20;;;;;;5033893;28;19909;-81
2021/08/09 09:04:20;;;;;;;;;;;25.90;94.80;;;;;;5022069;28;19913;-81
2021/08/09 09:06:45;;;;;;;;;;;26.10;92.90;;;;;;5038625;28;19909;-80
2021/08/09 09:09:21;;;;;;;;;;;26.30;92.20;;;;;;5038606;28;19913;-80
2021/08/09 09:11:47;;;;;;;;;;;25.70;90.00;;;;;;5038731;28;19913;-81
2021/08/09 09:14:12;;;;;;;;;;;25.50;92.10;;;;;;5037332;28;20003;-81
2021/08/09 09:16:45;;;;;;;;;;;26.00;90.20;;;;;;5039078;28;19909;-81
2021/08/09 09:19:11;;;;;;;;;;;26.20;91.80;;;;;;5038496;28;19916;-83
2021/08/09 09:21:38;;;;;;;;;;;26.60;90.70;;;;;;5038807;28;19936;-82
2021/08/09 09:24:08;;;;;;;;;;;26.70;92.40;;;;;;5038895;28;19956;-82
2021/08/09 09:26:35;;;;;;;;;;;27.30;91.00;;;;;;5036325;28;19920;-80
2021/08/09 09:29:08;;;;;;;;;;;28.00;91.20;;;;;;5036104;28;19913;-79
2021/08/09 09:31:34;;;;;;;;;;;28.20;86.20;;;;;;5036452;28;19959;-80
2021/08/09 09:34:02;;;;;;;;;;;28.00;88.20;;;;;;5034864;28;19913;-81
2021/08/09 09:36:30;;;;;;;;;;;27.70;88.40;;;;;;5036351;28;20326;-79
2021/08/09 09:38:55;;;;;;;;;;;27.90;88.50;;;;;;5037914;28;19909;-80
2021/08/09 09:41:21;;;;;;;;;;;27.70;87.50;;;;;;5035687;28;19909;-79
2021/08/09 09:43:48;;;;;;;;;;;27.80;84.90;;;;;;5033688;28;19913;-79
2021/08/09 09:46:24;;;;;;;;;;;27.80;90.00;;;;;;5033790;28;19909;-79
2021/08/09 09:48:50;;;;;;;;;;;27.90;86.80;;;;;;5033764;28;19913;-79
2021/08/09 09:51:17;;;;;;;;;;;28.30;90.10;;;;;;5015922;28;19909;-79
2021/08/09 09:53:43;;;;;;;;;;;28.30;87.50;;;;;;5033789;28;19971;-78
2021/08/09 09:56:09;;;;;;;;;;;28.20;88.10;;;;;;5033240;28;19915;-79
2021/08/09 09:58:35;;;;;;;;;;;28.50;90.20;;;;;;5033797;28;20007;-79
2021/08/09 10:01:01;;;;;;;;;;;28.60;83.00;;;;;;5033540;28;19924;-78
2021/08/09 10:03:27;;;;;;;;;;;28.50;83.50;;;;;;5033488;28;19913;-78
2021/08/09 10:05:52;;;;;;;;;;;28.30;85.80;;;;;;5033590;28;19952;-79
2021/08/09 10:08:18;;;;;;;;;;;28.30;89.10;;;;;;5033081;28;19913;-79
2021/08/09 10:10:48;;;;;;;;;;;28.60;88.20;;;;;;5033035;28;20289;-78
2021/08/09 10:13:17;;;;;;;;;;;29.10;83.40;;;;;;5033429;28;19963;-79
2021/08/09 10:15:43;;;;;;;;;;;29.00;83.00;;;;;;5033053;28;20372;-79
2021/08/09 10:18:09;;;;;;;;;;;29.50;88.00;;;;;;5014942;28;19948;-79
2021/08/09 10:20:35;;;;;;;;;;;29.90;82.30;;;;;;5015909;28;19915;-79
2021/08/09 10:23:02;;;;;;;;;;;29.60;80.10;;;;;;5015217;28;19952;-79
2021/08/09 10:25:57;;;;;;;;;;;29.40;87.70;;;;;;5030726;28;20003;-79
2021/08/09 10:28:22;;;;;;;;;;;28.30;81.50;;;;;;5002088;28;19913;-79
2021/08/09 10:30:48;;;;;;;;;;;27.30;85.60;;;;;;5028057;28;19917;-79
2021/08/09 10:33:33;;;;;;;;;;;26.70;88.30;;;;;;5032867;28;20502;-79
2021/08/09 10:35:59;;;;;;;;;;;26.00;88.60;;;;;;5015054;28;19909;-81
2021/08/09 10:38:26;;;;;;;;;;;25.90;90.70;;;;;;5025839;28;20012;-80
2021/08/09 10:41:00;;;;;;;;;;;26.30;92.30;;;;;;5032447;28;19909;-79
2021/08/09 10:43:26;;;;;;;;;;;27.10;90.10;;;;;;5025237;28;20346;-79
2021/08/09 10:45:52;;;;;;;;;;;27.50;85.50;;;;;;5033320;28;19992;-80
2021/08/09 10:48:36;;;;;;;;;;;28.20;87.40;;;;;;5015757;28;20007;-79
2021/08/09 10:51:02;;;;;;;;;;;28.90;86.60;;;;;;5035226;28;19963;-80
2021/08/09 10:53:28;;;;;;;;;;;29.20;78.40;;;;;;5033500;28;19909;-79
2021/08/09 10:55:58;;;;;;;;;;;29.10;83.70;;;;;;5036224;28;19952;-81
2021/08/09 10:58:42;;;;;;;;;;;28.60;82.00;;;;;;5032786;28;19941;-79
2021/08/09 11:01:08;;;;;;;;;;;27.40;79.60;;;;;;5014857;28;19944;-80
2021/08/09 11:03:34;;;;;;;;;;;27.20;83.80;;;;;;5032310;28;19940;-79
2021/08/09 11:06:19;;;;;;;;;;;27.10;81.70;;;;;;5032381;28;20346;-79
2021/08/09 11:08:44;;;;;;;;;;;27.40;87.90;;;;;;5032007;28;19925;-79
2021/08/09 11:11:10;;;;;;;;;;;27.80;82.90;;;;;;5034580;28;19909;-80
2021/08/09 11:13:35;;;;;;;;;;;27.90;80.40;;;;;;5036346;28;19909;-80
2021/08/09 11:16:02;;;;;;;;;;;28.30;82.50;;;;;;5018003;28;19917;-81
2021/08/09 11:18:28;;;;;;;;;;;28.80;80.20;;;;;;5016675;28;19920;-79
2021/08/09 11:21:02;;;;;;;;;;;29.30;79.90;;;;;;5035862;28;19934;-79
2021/08/09 11:23:33;;;;;;;;;;;29.80;80.40;;;;;;5033278;28;20480;-79
2021/08/09 11:25:59;;;;;;;;;;;30.30;82.00;;;;;;5031906;28;19916;-80
2021/08/09 11:28:25;;;;;;;;;;;30.30;78.60;;;;;;5031239;28;19936;-79
2021/08/09 11:31:02;;;;;;;;;;;30.00;77.40;;;;;;5028804;28;19963;-79
2021/08/09 11:33:38;;;;;;;;;;;29.20;75.80;;;;;;5012721;28;19910;-80
2021/08/09 11:36:05;;;;;;;;;;;28.50;76.60;;;;;;5012190;28;19941;-79
2021/08/09 11:38:49;;;;;;;;;;;28.10;80.40;;;;;;5032830;28;19909;-80
2021/08/09 11:41:19;;;;;;;;;;;27.30;82.40;;;;;;5032296;28;20011;-79
2021/08/09 11:43:45;;;;;;;;;;;26.90;81.60;;;;;;5032507;28;19996;-79
2021/08/09 11:46:13;;;;;;;;;;;26.30;79.10;;;;;;5032762;28;20330;-79
2021/08/09 11:48:39;;;;;;;;;;;25.90;82.00;;;;;;5031835;28;19913;-79
2021/08/09 11:51:06;;;;;;;;;;;25.40;83.90;;;;;;5032080;28;20370;-79
2021/08/09 11:53:33;;;;;;;;;;;25.20;83.40;;;;;;5014735;28;19952;-81
2021/08/09 11:56:09;;;;;;;;;;;25.00;86.80;;;;;;5032926;28;19937;-79
2021/08/09 11:58:35;;;;;;;;;;;25.50;86.80;;;;;;5015082;28;19914;-80
2021/08/09 12:01:00;;;;;;;;;;;26.30;87.80;;;;;;5031193;28;20281;-80
2021/08/09 12:03:27;;;;;;;;;;;26.90;78.30;;;;;;5031784;28;20385;-79
2021/08/09 12:05:57;;;;;;;;;;;26.80;83.30;;;;;;5015621;28;19909;-80
2021/08/09 12:08:24;;;;;;;;;;;26.40;81.90;;;;;;5031661;28;20363;-80
2021/08/09 12:10:49;;;;;;;;;;;25.80;79.30;;;;;;5032314;28;19956;-80
2021/08/09 12:13:22;;;;;;;;;;;25.50;84.50;;;;;;5032740;28;19917;-80
2021/08/09 12:16:07;;;;;;;;;;;25.00;80.80;;;;;;5031349;28;19940;-79
2021/08/09 12:18:32;;;;;;;;;;;24.80;85.40;;;;;;5014071;28;20289;-81
2021/08/09 12:21:12;;;;;;;;;;;24.80;82.70;;;;;;5031873;28;20026;-79
2021/08/09 12:23:57;;;;;;;;;;;24.90;85.00;;;;;;5014594;28;19917;-79
2021/08/09 12:26:29;;;;;;;;;;;24.70;85.20;;;;;;5015376;28;19909;-80
2021/08/09 12:28:59;;;;;;;;;;;24.70;86.40;;;;;;5033204;28;20251;-78
2021/08/09 12:31:35;;;;;;;;;;;24.80;82.40;;;;;;5032706;28;20263;-79
2021/08/09 12:34:05;;;;;;;;;;;24.90;80.60;;;;;;5015423;28;19909;-80
2021/08/09 12:36:31;;;;;;;;;;;25.30;87.00;;;;;;5033956;28;20282;-80
2021/08/09 12:38:57;;;;;;;;;;;25.80;87.20;;;;;;5034896;28;19949;-80
2021/08/09 12:41:26;;;;;;;;;;;26.50;86.00;;;;;;5033501;28;20282;-79
2021/08/09 12:43:51;;;;;;;;;;;26.70;81.80;;;;;;5015878;28;19909;-81
2021/08/09 12:46:17;;;;;;;;;;;26.90;82.30;;;;;;5031843;28;19970;-79
2021/08/09 12:48:48;;;;;;;;;;;27.10;83.10;;;;;;5033147;28;19920;-79
2021/08/09 12:51:14;;;;;;;;;;;27.30;81.30;;;;;;5032867;28;19916;-80
2021/08/09 12:53:40;;;;;;;;;;;27.40;78.10;;;;;;5032929;28;20362;-79
2021/08/09 12:56:06;;;;;;;;;;;27.50;78.70;;;;;;5031723;28;19913;-79
2021/08/09 12:58:31;;;;;;;;;;;27.80;78.60;;;;;;5030952;28;20387;-79
2021/08/09 13:00:57;;;;;;;;;;;27.70;80.30;;;;;;5030832;28;19913;-78
2021/08/09 13:03:22;;;;;;;;;;;27.80;77.80;;;;;;5033270;28;19995;-80
2021/08/09 13:05:48;;;;;;;;;;;28.20;81.40;;;;;;5035192;28;19956;-80
2021/08/09 13:08:13;;;;;;;;;;;28.40;80.10;;;;;;5038315;28;19967;-81
2021/08/09 13:10:39;;;;;;;;;;;28.80;79.40;;;;;;5039242;28;19935;-81
2021/08/09 13:13:04;;;;;;;;;;;29.20;74.60;;;;;;5021802;28;19909;-81
2021/08/09 13:15:29;;;;;;;;;;;29.20;76.30;;;;;;5040086;28;19909;-81
2021/08/09 13:17:56;;;;;;;;;;;29.10;76.80;;;;;;5040035;28;19909;-81
2021/08/09 13:20:21;;;;;;;;;;;29.10;77.80;;;;;;5039776;28;19913;-80
2021/08/09 13:22:47;;;;;;;;;;;29.30;74.80;;;;;;5022173;28;19920;-81
2021/08/09 13:25:12;;;;;;;;;;;29.60;75.60;;;;;;5039281;28;19909;-80
2021/08/09 13:27:38;;;;;;;;;;;29.10;73.50;;;;;;5020823;28;19914;-80
2021/08/09 13:30:04;;;;;;;;;;;29.20;73.70;;;;;;5039041;28;19982;-81
2021/08/09 13:32:30;;;;;;;;;;;29.10;71.40;;;;;;5039706;28;19913;-81
2021/08/09 13:34:55;;;;;;;;;;;28.60;74.60;;;;;;5038791;28;19913;-80
2021/08/09 13:37:21;;;;;;;;;;;28.50;74.70;;;;;;5037623;28;20380;-80
2021/08/09 13:39:48;;;;;;;;;;;28.20;77.40;;;;;;5021838;28;19940;-81
2021/08/09 13:42:14;;;;;;;;;;;28.20;79.30;;;;;;5040130;28;19909;-81
2021/08/09 13:44:39;;;;;;;;;;;28.30;76.80;;;;;;5039447;28;19963;-80
2021/08/09 13:47:05;;;;;;;;;;;28.00;76.70;;;;;;5038926;28;20278;-81
2021/08/09 13:49:30;;;;;;;;;;;27.90;76.70;;;;;;5038805;28;20013;-82
2021/08/09 13:51:56;;;;;;;;;;;27.80;78.50;;;;;;5039490;28;19909;-81
2021/08/09 13:54:21;;;;;;;;;;;27.90;80.80;;;;;;5039930;28;19910;-81
2021/08/09 13:56:47;;;;;;;;;;;28.30;75.20;;;;;;5036556;28;20354;-82
2021/08/09 13:59:12;;;;;;;;;;;28.50;75.60;;;;;;5017330;28;19909;-81
2021/08/09 14:01:38;;;;;;;;;;;29.10;76.20;;;;;;5034520;28;20305;-80
2021/08/09 14:04:03;;;;;;;;;;;29.10;72.20;;;;;;5034469;28;20366;-81
2021/08/09 14:06:29;;;;;;;;;;;29.00;71.00;;;;;;5034586;28;19916;-80
2021/08/09 14:08:54;;;;;;;;;;;29.40;76.10;;;;;;5035005;28;19913;-80
2021/08/09 14:11:20;;;;;;;;;;;29.50;74.50;;;;;;5034555;28;19916;-80
2021/08/09 14:13:45;;;;;;;;;;;29.20;68.80;;;;;;5034848;28;20393;-80
2021/08/09 14:16:11;;;;;;;;;;;28.80;78.00;;;;;;5034865;28;19909;-80
2021/08/09 14:18:37;;;;;;;;;;;28.70;71.50;;;;;;5034452;28;19913;-80